Time;durP1;ratioP1;P1;durP2;ratioP2;P2;SDS_P1;SDS_P2;PMS_P1;PMS_P2;Temp;Humidity;BMP_temperature;BMP_pressure;BME280_temperature;BME280_humidity;BME280_pressure;Samples;Min_cycle;Max_cycle;Signal;HPM_P1;HPM_P2
2024/01/22 00:00:10;;;;;;;0.50;0.50;;;;;;;2.28;100.00;98972.97;5064915;28;20025;-68
2024/01/22 00:02:36;;;;;;;0.40;0.40;;;;;;;2.23;100.00;98985.75;5065052;28;20072;-68
2024/01/22 00:05:02;;;;;;;3.30;3.10;;;;;;;2.27;100.00;99011.38;5064969;28;20036;-66
2024/01/22 00:07:27;;;;;;;0.65;0.65;;;;;;;2.28;100.00;98983.22;5065056;28;20100;-68
2024/01/22 00:09:53;;;;;;;1.10;1.10;;;;;;;2.35;100.00;98994.31;5080156;28;20025;-68
2024/01/22 00:12:18;;;;;;;0.50;0.50;;;;;;;2.28;100.00;98972.09;5065067;28;20025;-67
2024/01/22 00:14:44;;;;;;;0.50;0.50;;;;;;;2.32;100.00;98971.25;5064843;28;20343;-67
2024/01/22 00:17:10;;;;;;;0.40;0.40;;;;;;;2.25;100.00;98972.97;5064799;28;20025;-67
2024/01/22 00:19:35;;;;;;;0.50;0.50;;;;;;;2.28;100.00;98964.41;5064742;28;20059;-68
2024/01/22 00:22:01;;;;;;;0.98;0.98;;;;;;;2.22;100.00;98940.50;5064808;28;20052;-67
2024/01/22 00:24:26;;;;;;;0.40;0.40;;;;;;;2.39;100.00;98926.88;5064410;28;20028;-66
2024/01/22 00:26:51;;;;;;;0.50;0.50;;;;;;;2.35;100.00;98928.56;5064842;28;20073;-67
2024/01/22 00:29:17;;;;;;;0.50;0.50;;;;;;;2.25;100.00;98910.63;5064681;28;20021;-66
2024/01/22 00:31:42;;;;;;;0.50;0.50;;;;;;;2.39;100.00;98888.47;5064670;28;20025;-68
2024/01/22 00:34:08;;;;;;;0.50;0.50;;;;;;;2.33;100.00;98881.59;5063351;28;20056;-67
2024/01/22 00:36:33;;;;;;;0.68;0.68;;;;;;;2.39;100.00;98847.47;5064697;28;20104;-67
2024/01/22 00:38:58;;;;;;;0.50;0.50;;;;;;;2.26;100.00;98841.50;5065372;28;20025;-67
2024/01/22 00:41:24;;;;;;;1.75;1.65;;;;;;;2.35;100.00;98831.25;5068526;28;20028;-67
2024/01/22 00:43:49;;;;;;;0.82;0.82;;;;;;;2.37;100.00;98822.69;5068252;28;20489;-67
2024/01/22 00:46:14;;;;;;;0.50;0.50;;;;;;;2.29;100.00;98815.03;5068493;28;20032;-67
2024/01/22 00:48:40;;;;;;;0.40;0.40;;;;;;;2.22;100.00;98774.06;5068382;28;20430;-67
2024/01/22 00:51:05;;;;;;;0.50;0.50;;;;;;;2.28;100.00;98792.84;5066999;28;20039;-66
2024/01/22 00:53:30;;;;;;;0.50;0.50;;;;;;;2.22;100.00;98779.19;5068036;28;20021;-66
2024/01/22 00:55:56;;;;;;;0.50;0.50;;;;;;;2.21;100.00;98777.47;5066255;28;20144;-67
2024/01/22 00:58:21;;;;;;;0.68;0.68;;;;;;;2.28;100.00;98752.72;5067081;28;20029;-68
2024/01/22 01:00:46;;;;;;;0.75;0.75;;;;;;;2.43;100.00;98736.47;5083500;28;20021;-67
2024/01/22 01:03:12;;;;;;;0.50;0.50;;;;;;;2.31;100.00;98731.38;5066814;28;20190;-67
2024/01/22 01:05:37;;;;;;;0.80;0.80;;;;;;;2.23;100.00;98710.91;5066288;28;20029;-67
2024/01/22 01:08:03;;;;;;;0.50;0.50;;;;;;;2.31;100.00;98706.63;5068025;28;20035;-66
2024/01/22 01:10:28;;;;;;;2.45;1.60;;;;;;;2.28;100.00;98698.09;5066526;28;20021;-69
2024/01/22 01:12:53;;;;;;;0.40;0.40;;;;;;;2.32;100.00;98663.91;5067951;28;20024;-67
2024/01/22 01:15:20;;;;;;;0.50;0.50;;;;;;;2.31;100.00;98664.78;5067998;28;20036;-68
2024/01/22 01:17:46;;;;;;;0.50;0.50;;;;;;;2.35;100.00;98649.41;5067866;28;20025;-67
2024/01/22 01:20:11;;;;;;;0.50;0.50;;;;;;;2.46;100.00;98613.50;5067693;28;20017;-67
2024/01/22 01:22:37;;;;;;;0.40;0.40;;;;;;;2.44;100.00;98601.56;5067670;28;20056;-66
2024/01/22 01:25:02;;;;;;;0.50;0.50;;;;;;;2.21;100.00;98577.75;5067332;28;20048;-68
2024/01/22 01:27:28;;;;;;;1.02;1.02;;;;;;;2.63;100.00;98589.53;5067622;28;20120;-66
2024/01/22 01:29:53;;;;;;;1.17;1.15;;;;;;;2.24;100.00;98579.44;5067642;28;20028;-66
2024/01/22 01:32:19;;;;;;;0.45;0.45;;;;;;;2.32;100.00;98559.78;5066279;28;20021;-65
2024/01/22 01:34:44;;;;;;;0.50;0.50;;;;;;;2.27;100.00;98540.19;5067450;28;20025;-67
2024/01/22 01:37:09;;;;;;;0.50;0.50;;;;;;;2.07;100.00;98543.66;5067330;28;20041;-67
2024/01/22 01:39:35;;;;;;;0.50;0.50;;;;;;;2.12;100.00;98541.94;5065654;28;20025;-67
2024/01/22 01:42:00;;;;;;;0.40;0.40;;;;;;;2.20;100.00;98524.00;5067422;28;20112;-67
2024/01/22 01:44:37;;;;;;;0.40;0.40;;;;;;;2.17;100.00;98529.97;5067216;28;20056;-68
2024/01/22 01:47:03;;;;;;;0.52;0.52;;;;;;;2.10;100.00;98543.66;5067233;28;20501;-68
2024/01/22 01:49:29;;;;;;;0.50;0.50;;;;;;;2.06;100.00;98553.03;5066594;28;20028;-67
2024/01/22 01:51:54;;;;;;;0.60;0.60;;;;;;;2.31;100.00;98501.75;5066551;28;20025;-67
2024/01/22 01:54:20;;;;;;;0.40;0.40;;;;;;;2.20;100.00;98504.38;5066620;28;20092;-67
2024/01/22 01:56:46;;;;;;;2.67;2.58;;;;;;;2.17;100.00;98490.72;5066795;28;20041;-67
2024/01/22 01:59:11;;;;;;;0.40;0.40;;;;;;;2.23;100.00;98457.41;5065404;28;20419;-68
2024/01/22 02:01:36;;;;;;;0.40;0.40;;;;;;;2.40;100.00;98485.47;5066636;28;20021;-68
2024/01/22 02:04:02;;;;;;;0.50;0.50;;;;;;;2.38;100.00;98447.94;5066391;28;20539;-68
2024/01/22 02:06:27;;;;;;;0.40;0.40;;;;;;;2.21;100.00;98457.41;5066895;28;20059;-68
2024/01/22 02:08:52;;;;;;;0.40;0.40;;;;;;;2.24;100.00;98430.94;5066648;28;20098;-68
2024/01/22 02:11:22;;;;;;;0.40;0.40;;;;;;;2.58;100.00;98414.47;5066620;28;20028;-68
2024/01/22 02:13:48;;;;;;;0.47;0.47;;;;;;;2.28;100.00;98429.22;5066467;28;20021;-68
2024/01/22 02:16:13;;;;;;;0.50;0.50;;;;;;;2.21;100.00;98413.88;5065246;28;20380;-68
2024/01/22 02:18:39;;;;;;;0.50;0.50;;;;;;;2.21;100.00;98398.53;5066454;28;20086;-69
2024/01/22 02:21:04;;;;;;;0.40;0.40;;;;;;;2.16;100.00;98401.97;5066698;28;20025;-69
2024/01/22 02:23:29;;;;;;;0.50;0.50;;;;;;;2.14;100.00;98389.16;5066409;28;20029;-69
2024/01/22 02:25:55;;;;;;;0.50;0.50;;;;;;;2.24;100.00;98405.31;5066326;28;20021;-68
2024/01/22 02:28:20;;;;;;;0.50;0.50;;;;;;;2.22;100.00;98368.66;5064945;28;20092;-68
2024/01/22 02:30:45;;;;;;;0.50;0.50;;;;;;;2.26;100.00;98389.94;5066349;28;20468;-68
2024/01/22 02:33:11;;;;;;;1.15;1.13;;;;;;;2.33;100.00;98341.22;5066048;28;20035;-67
2024/01/22 02:35:36;;;;;;;0.50;0.50;;;;;;;2.23;100.00;98342.19;5066331;28;20377;-69
2024/01/22 02:38:02;;;;;;;0.40;0.40;;;;;;;2.20;100.00;98332.81;5066015;28;20021;-69
2024/01/22 02:40:27;;;;;;;0.45;0.45;;;;;;;2.29;100.00;98324.19;5081280;28;20021;-69
2024/01/22 02:42:52;;;;;;;0.50;0.50;;;;;;;2.21;100.00;98339.63;5065986;28;20032;-68
2024/01/22 02:45:18;;;;;;;6.63;6.07;;;;;;;2.38;100.00;98279.72;5065814;28;20145;-68
2024/01/22 02:47:43;;;;;;;0.50;0.50;;;;;;;2.51;100.00;98289.88;5066146;28;20021;-67
2024/01/22 02:50:09;;;;;;;0.50;0.50;;;;;;;2.37;100.00;98280.59;5065889;28;20021;-68
2024/01/22 02:52:34;;;;;;;0.40;0.40;;;;;;;2.31;100.00;98255.06;5064432;28;20490;-68
2024/01/22 02:54:59;;;;;;;0.40;0.40;;;;;;;2.64;100.00;98258.13;5065915;28;20025;-67
2024/01/22 02:57:25;;;;;;;0.40;0.40;;;;;;;2.46;100.00;98259.19;5065520;28;20037;-67
2024/01/22 02:59:50;;;;;;;0.40;0.40;;;;;;;2.60;100.00;98239.38;5065468;28;20025;-67
2024/01/22 03:02:15;;;;;;;0.50;0.50;;;;;;;2.44;100.00;98215.66;5064961;28;20029;-67
2024/01/22 03:04:41;;;;;;;0.50;0.50;;;;;;;2.45;100.00;98222.47;5064352;28;20024;-68
2024/01/22 03:07:06;;;;;;;0.40;0.40;;;;;;;2.61;100.00;98201.81;5065508;28;20035;-66
2024/01/22 03:09:31;;;;;;;0.50;0.50;;;;;;;2.56;100.00;98204.41;5065209;28;20021;-68
2024/01/22 03:11:57;;;;;;;1.40;1.30;;;;;;;2.60;100.00;98212.94;5065696;28;20067;-68
2024/01/22 03:14:22;;;;;;;0.45;0.45;;;;;;;2.54;100.00;98206.16;5065397;28;20082;-69
2024/01/22 03:16:47;;;;;;;0.40;0.40;;;;;;;2.58;100.00;98181.34;5065682;28;20090;-69
2024/01/22 03:19:12;;;;;;;0.40;0.40;;;;;;;2.64;100.00;98191.53;5065249;28;20081;-69
2024/01/22 03:21:38;;;;;;;0.50;0.50;;;;;;;2.64;100.00;98163.34;5065431;28;20024;-68
2024/01/22 03:24:03;;;;;;;0.40;0.40;;;;;;;2.67;100.00;98153.03;5065551;28;20021;-68
2024/01/22 03:26:29;;;;;;;0.40;0.40;;;;;;;2.68;100.00;98165.00;5065123;28;20063;-69
2024/01/22 03:28:54;;;;;;;0.40;0.40;;;;;;;2.65;100.00;98182.94;5065150;28;20017;-68
2024/01/22 03:31:24;;;;;;;0.45;0.45;;;;;;;2.67;100.00;98170.97;5064010;28;20078;-69
2024/01/22 03:33:51;;;;;;;0.50;0.50;;;;;;;2.77;100.00;98158.06;5063642;28;20024;-69
2024/01/22 03:36:17;;;;;;;0.50;0.50;;;;;;;2.89;100.00;98129.69;5065267;28;20020;-68
2024/01/22 03:38:43;;;;;;;0.40;0.40;;;;;;;2.80;100.00;98089.69;5065257;28;20067;-68
2024/01/22 03:41:08;;;;;;;0.40;0.40;;;;;;;2.78;100.00;98086.28;5064890;28;20032;-68
2024/01/22 03:43:34;;;;;;;0.40;0.40;;;;;;;3.04;100.00;98123.50;5065217;28;20017;-67
2024/01/22 03:45:59;;;;;;;0.43;0.43;;;;;;;3.16;100.00;98078.06;5064996;28;20523;-69
2024/01/22 03:48:24;;;;;;;0.40;0.40;;;;;;;2.90;100.00;98079.28;5063485;28;20179;-70
2024/01/22 03:50:53;;;;;;;0.85;0.85;;;;;;;2.89;100.00;98070.75;5064901;28;20028;-69
2024/01/22 03:53:18;;;;;;;0.50;0.50;;;;;;;3.04;100.00;98079.94;5063529;28;20029;-68
2024/01/22 03:55:43;;;;;;;0.50;0.50;;;;;;;3.04;100.00;98028.66;5064495;28;20100;-67
2024/01/22 03:58:09;;;;;;;0.40;0.40;;;;;;;3.10;100.00;98045.66;5064878;28;20078;-68
2024/01/22 04:00:34;;;;;;;0.40;0.40;;;;;;;2.94;100.00;98052.75;5064734;28;20465;-69
2024/01/22 04:02:59;;;;;;;0.60;0.60;;;;;;;2.98;100.00;98046.69;5064935;28;20044;-68
2024/01/22 04:05:25;;;;;;;0.40;0.40;;;;;;;3.01;100.00;98040.66;5063413;28;20017;-68
2024/01/22 04:07:50;;;;;;;0.40;0.40;;;;;;;2.93;100.00;98044.22;5064841;28;20031;-68
2024/01/22 04:10:15;;;;;;;10.63;1.33;;;;;;;2.92;100.00;98042.53;5063377;28;20113;-69
2024/01/22 04:12:41;;;;;;;0.55;0.55;;;;;;;3.13;100.00;98037.06;5063723;28;20093;-69
2024/01/22 04:15:06;;;;;;;0.50;0.50;;;;;;;3.13;100.00;98002.00;5068655;28;20052;-69
2024/01/22 04:17:32;;;;;;;0.50;0.50;;;;;;;3.08;100.00;98014.91;5068833;28;20084;-68
2024/01/22 04:19:57;;;;;;;0.50;0.50;;;;;;;3.03;100.00;97992.78;5068831;28;20036;-70
2024/01/22 04:22:23;;;;;;;0.50;0.50;;;;;;;2.99;100.00;97991.16;5068897;28;20020;-69
2024/01/22 04:24:48;;;;;;;0.50;0.50;;;;;;;3.09;100.00;97969.63;5068352;28;20048;-69
2024/01/22 04:27:13;;;;;;;0.45;0.45;;;;;;;3.03;100.00;97993.66;5068677;28;20036;-68
2024/01/22 04:29:39;;;;;;;0.40;0.40;;;;;;;3.02;100.00;97968.03;5068405;28;20017;-70
2024/01/22 04:32:05;;;;;;;0.50;0.50;;;;;;;3.26;100.00;97968.50;5068678;28;20067;-69
2024/01/22 04:34:30;;;;;;;0.50;0.50;;;;;;;3.09;100.00;97972.19;5068282;28;20040;-69
2024/01/22 04:36:55;;;;;;;0.40;0.40;;;;;;;3.08;100.00;97937.16;5068316;28;20051;-69
2024/01/22 04:39:21;;;;;;;0.43;0.43;;;;;;;3.08;100.00;97940.56;5068398;28;20035;-70
2024/01/22 04:41:47;;;;;;;0.50;0.50;;;;;;;3.10;100.00;97914.91;5068407;28;20029;-69
2024/01/22 04:44:12;;;;;;;0.40;0.40;;;;;;;3.08;100.00;97912.34;5068035;28;20020;-66
2024/01/22 04:46:38;;;;;;;0.50;0.50;;;;;;;3.06;100.00;97920.97;5068230;28;20080;-69
2024/01/22 04:49:03;;;;;;;0.50;0.50;;;;;;;3.10;100.00;97902.06;5068226;28;20021;-69
2024/01/22 04:51:28;;;;;;;0.43;0.43;;;;;;;3.07;100.00;97907.25;5068334;28;20052;-69
2024/01/22 04:53:54;;;;;;;0.40;0.40;;;;;;;3.10;100.00;97900.38;5068105;28;20025;-68
2024/01/22 04:56:19;;;;;;;0.40;0.40;;;;;;;3.17;100.00;97883.16;5067709;28;20045;-68
2024/01/22 04:58:44;;;;;;;0.40;0.40;;;;;;;3.10;100.00;97874.72;5068098;28;20021;-68
2024/01/22 05:01:12;;;;;;;0.50;0.50;;;;;;;3.07;100.00;97881.63;5067620;28;20111;-69
2024/01/22 05:03:37;;;;;;;0.40;0.40;;;;;;;3.05;100.00;97853.47;5067682;28;20080;-70
2024/01/22 05:06:03;;;;;;;0.45;0.45;;;;;;;3.25;100.00;97843.69;5067823;28;20055;-69
2024/01/22 05:08:28;;;;;;;0.40;0.40;;;;;;;3.25;100.00;97864.19;5067937;28;20025;-71
2024/01/22 05:10:53;;;;;;;0.40;0.40;;;;;;;3.10;100.00;97871.31;5066323;28;20028;-69
2024/01/22 05:13:19;;;;;;;0.40;0.40;;;;;;;3.18;100.00;97825.88;5067857;28;20036;-69
2024/01/22 05:15:44;;;;;;;0.40;0.40;;;;;;;3.12;100.00;97836.25;5067666;28;20029;-70
2024/01/22 05:18:10;;;;;;;0.40;0.40;;;;;;;3.12;100.00;97810.59;5067677;28;20051;-70
2024/01/22 05:20:35;;;;;;;0.40;0.40;;;;;;;3.13;100.00;97811.47;5066262;28;20029;-70
2024/01/22 05:23:00;;;;;;;0.40;0.40;;;;;;;3.16;100.00;97789.19;5067632;28;20048;-71
2024/01/22 05:25:26;;;;;;;3.58;3.25;;;;;;;3.42;100.00;97753.59;5066491;28;20021;-69
2024/01/22 05:27:51;;;;;;;3.72;3.42;;;;;;;3.40;100.00;97756.19;5067601;28;20029;-69
2024/01/22 05:30:16;;;;;;;0.45;0.45;;;;;;;3.20;100.00;97761.72;5067345;28;20048;-69
2024/01/22 05:32:42;;;;;;;0.40;0.40;;;;;;;3.26;100.00;97758.22;5067351;28;20020;-69
2024/01/22 05:35:07;;;;;;;0.40;0.40;;;;;;;3.22;100.00;97788.19;5067447;28;20044;-69
2024/01/22 05:37:33;;;;;;;0.40;0.40;;;;;;;3.15;100.00;97746.44;5066899;28;20366;-69
2024/01/22 05:39:58;;;;;;;0.40;0.40;;;;;;;3.17;100.00;97725.91;5066925;28;20059;-68
2024/01/22 05:42:24;;;;;;;0.40;0.40;;;;;;;3.20;100.00;97687.38;5067222;28;20023;-69
2024/01/22 05:44:49;;;;;;;0.93;0.93;;;;;;;3.27;100.00;97706.03;5067153;28;20031;-70
2024/01/22 05:47:14;;;;;;;1.33;1.23;;;;;;;3.22;100.00;97696.75;5067104;28;20124;-69
2024/01/22 05:49:41;;;;;;;2.28;1.88;;;;;;;3.20;100.00;97703.63;5065750;28;20017;-69
2024/01/22 05:52:06;;;;;;;14.73;4.22;;;;;;;3.20;100.00;97690.78;5065901;28;20021;-67
2024/01/22 05:54:31;;;;;;;3.45;1.48;;;;;;;3.25;100.00;97708.63;5066800;28;20080;-66
2024/01/22 05:56:57;;;;;;;1.10;1.10;;;;;;;3.34;100.00;97679.38;5066846;28;20049;-68
2024/01/22 05:59:22;;;;;;;1.63;1.52;;;;;;;3.52;100.00;97685.78;5066907;28;20017;-68
2024/01/22 06:01:47;;;;;;;1.95;1.38;;;;;;;3.40;100.00;97669.00;5065696;28;20058;-69
2024/01/22 06:04:13;;;;;;;0.40;0.40;;;;;;;3.26;100.00;97643.66;5066850;28;20055;-68
2024/01/22 06:06:38;;;;;;;0.40;0.40;;;;;;;3.37;100.00;97663.09;5066956;28;20021;-68
2024/01/22 06:09:04;;;;;;;1.50;1.40;;;;;;;3.53;100.00;97637.91;5066849;28;20032;-68
2024/01/22 06:11:30;;;;;;;0.40;0.40;;;;;;;3.48;100.00;97635.47;5066692;28;20032;-69
2024/01/22 06:13:56;;;;;;;0.40;0.40;;;;;;;3.53;100.00;97635.34;5066905;28;20055;-68
2024/01/22 06:16:21;;;;;;;0.40;0.40;;;;;;;3.44;100.00;97621.84;5066527;28;20443;-68
2024/01/22 06:18:48;;;;;;;0.40;0.40;;;;;;;3.44;100.00;97632.13;5066555;28;20033;-67
2024/01/22 06:21:13;;;;;;;0.40;0.40;;;;;;;3.50;100.00;97622.59;5066858;28;20017;-68
2024/01/22 06:23:40;;;;;;;0.40;0.40;;;;;;;3.45;100.00;97633.78;5066746;28;20047;-69
2024/01/22 06:26:06;;;;;;;0.88;0.82;;;;;;;3.45;100.00;97587.63;5066351;28;20021;-69
2024/01/22 06:28:31;;;;;;;1.75;1.50;;;;;;;3.50;100.00;97620.03;5066572;28;20032;-67
2024/01/22 06:30:57;;;;;;;2.67;2.47;;;;;;;3.57;100.00;97614.69;5066494;28;20036;-67
2024/01/22 06:33:23;;;;;;;0.95;0.90;;;;;;;3.59;100.00;97623.19;5065399;28;20028;-67
2024/01/22 06:35:49;;;;;;;1.02;1.02;;;;;;;3.62;100.00;97582.94;5065938;28;20046;-67
2024/01/22 06:38:17;;;;;;;1.30;1.20;;;;;;;3.76;100.00;97573.16;5064041;28;20029;-67
2024/01/22 06:40:44;;;;;;;1.75;1.65;;;;;;;3.76;100.00;97585.16;5066251;28;20029;-68
2024/01/22 06:43:09;;;;;;;7.97;1.67;;;;;;;3.74;100.00;97576.66;5066449;28;20017;-67
2024/01/22 06:45:35;;;;;;;0.70;0.70;;;;;;;3.86;100.00;97578.91;5066176;28;20028;-68
2024/01/22 06:48:01;;;;;;;0.65;0.65;;;;;;;3.88;100.00;97584.84;5064855;28;20052;-67
2024/01/22 06:50:27;;;;;;;3.65;1.58;;;;;;;3.86;100.00;97553.25;5064579;28;20598;-67
2024/01/22 06:52:52;;;;;;;1.52;1.42;;;;;;;3.86;100.00;97565.22;5066154;28;20033;-68
2024/01/22 06:55:18;;;;;;;1.38;1.27;;;;;;;3.88;100.00;97556.63;5065967;28;20024;-66
2024/01/22 06:57:44;;;;;;;0.50;0.50;;;;;;;3.88;100.00;97569.44;5065987;28;20041;-67
2024/01/22 07:00:11;;;;;;;0.77;0.77;;;;;;;3.91;100.00;97564.22;5066021;28;20058;-67
2024/01/22 07:02:41;;;;;;;1.00;0.95;;;;;;;3.92;100.00;97550.50;5065986;28;20024;-68
2024/01/22 07:05:07;;;;;;;1.30;1.27;;;;;;;3.95;100.00;97565.81;5065901;28;20025;-68
2024/01/22 07:07:33;;;;;;;1.40;0.85;;;;;;;3.95;100.00;97547.00;5066109;28;20016;-68
2024/01/22 07:09:58;;;;;;;1.27;0.93;;;;;;;3.97;100.00;97527.28;5065633;28;20027;-67
2024/01/22 07:12:24;;;;;;;8.93;1.73;;;;;;;4.10;100.00;97525.19;5065869;28;20499;-67
2024/01/22 07:14:50;;;;;;;1.10;1.00;;;;;;;4.03;100.00;97524.53;5065799;28;20412;-67
2024/01/22 07:17:16;;;;;;;0.50;0.50;;;;;;;4.10;100.00;97538.03;5065842;28;20025;-68
2024/01/22 07:19:42;;;;;;;13.20;0.80;;;;;;;4.13;100.00;97529.41;5065636;28;20073;-67
2024/01/22 07:22:07;;;;;;;0.70;0.70;;;;;;;4.15;100.00;97510.50;5065861;28;20047;-67
2024/01/22 07:24:33;;;;;;;2.38;2.28;;;;;;;4.18;100.00;97515.56;5065628;28;20017;-66
2024/01/22 07:26:58;;;;;;;1.83;1.73;;;;;;;4.26;100.00;97517.91;5065538;28;20021;-66
2024/01/22 07:29:24;;;;;;;0.50;0.50;;;;;;;4.21;100.00;97496.63;5065612;28;20027;-67
2024/01/22 07:31:50;;;;;;;2.17;1.98;;;;;;;4.27;100.00;97495.59;5065603;28;20056;-67
2024/01/22 07:34:15;;;;;;;1.63;1.52;;;;;;;4.26;100.00;97476.81;5065449;28;20492;-66
2024/01/22 07:36:40;;;;;;;6.30;1.65;;;;;;;4.33;100.00;97480.00;5065415;28;20031;-66
2024/01/22 07:39:07;;;;;;;11.07;1.10;;;;;;;4.36;100.00;97479.09;5064057;28;20032;-66
2024/01/22 07:41:33;;;;;;;1.50;1.10;;;;;;;4.39;100.00;97479.84;5065374;28;20032;-66
2024/01/22 07:43:59;;;;;;;0.95;0.95;;;;;;;4.40;100.00;97480.66;5065471;28;20021;-67
2024/01/22 07:46:24;;;;;;;13.98;1.95;;;;;;;4.30;100.00;97472.41;5064004;28;20088;-66
2024/01/22 07:48:49;;;;;;;4.60;4.20;;;;;;;4.39;100.00;97471.28;5065119;28;20462;-66
2024/01/22 07:51:15;;;;;;;0.98;0.98;;;;;;;4.43;100.00;97499.41;5065118;28;20024;-67
2024/01/22 07:53:40;;;;;;;1.42;1.20;;;;;;;4.47;100.00;97474.47;5065362;28;20020;-67
2024/01/22 07:56:06;;;;;;;3.95;1.42;;;;;;;4.42;100.00;97505.44;5064672;28;20167;-66
2024/01/22 07:58:32;;;;;;;1.33;1.33;;;;;;;4.34;100.00;97499.69;5065440;28;20079;-67
2024/01/22 08:00:57;;;;;;;0.40;0.40;;;;;;;4.38;100.00;97483.28;5065018;28;20539;-68
2024/01/22 08:03:23;;;;;;;0.93;0.93;;;;;;;4.47;100.00;97493.28;5065318;28;20032;-68
2024/01/22 08:05:48;;;;;;;0.40;0.40;;;;;;;4.42;100.00;97499.44;5063700;28;20029;-66
2024/01/22 08:08:13;;;;;;;0.60;0.60;;;;;;;4.50;100.00;97507.78;5065266;28;20028;-65
2024/01/22 08:10:39;;;;;;;0.40;0.40;;;;;;;4.53;100.00;97501.69;5064857;28;20029;-66
2024/01/22 08:13:05;;;;;;;0.40;0.40;;;;;;;4.50;100.00;97499.22;5065038;28;20028;-67
2024/01/22 08:15:31;;;;;;;0.40;0.40;;;;;;;4.53;100.00;97492.25;5064904;28;20027;-67
2024/01/22 08:17:56;;;;;;;0.40;0.40;;;;;;;4.51;100.00;97493.19;5064978;28;20108;-66
2024/01/22 08:20:21;;;;;;;0.40;0.40;;;;;;;4.60;100.00;97513.44;5064952;28;20055;-66
2024/01/22 08:22:47;;;;;;;1.55;1.50;;;;;;;4.59;100.00;97497.22;5063745;28;20137;-66
2024/01/22 08:25:18;;;;;;;0.40;0.40;;;;;;;4.56;100.00;97488.75;5063415;28;20097;-66
2024/01/22 08:27:44;;;;;;;0.50;0.50;;;;;;;4.60;100.00;97498.03;5065071;28;20017;-68
2024/01/22 08:30:11;;;;;;;0.50;0.50;;;;;;;4.68;100.00;97497.81;5063516;28;20025;-68
2024/01/22 08:32:37;;;;;;;0.40;0.40;;;;;;;4.77;100.00;97489.81;5065076;28;20036;-66
2024/01/22 08:35:02;;;;;;;0.40;0.40;;;;;;;4.73;100.00;97471.97;5064740;28;20053;-66
2024/01/22 08:37:28;;;;;;;0.40;0.40;;;;;;;4.80;100.00;97499.13;5064896;28;20032;-66
2024/01/22 08:39:53;;;;;;;0.40;0.40;;;;;;;4.78;100.00;97485.50;5064454;28;20025;-66
2024/01/22 08:42:18;;;;;;;0.50;0.50;;;;;;;4.80;100.00;97488.84;5065028;28;20021;-66
2024/01/22 08:44:44;;;;;;;0.40;0.40;;;;;;;4.84;100.00;97460.44;5063405;28;20093;-66
2024/01/22 08:47:09;;;;;;;0.40;0.40;;;;;;;4.88;100.00;97484.31;5064660;28;20035;-66
2024/01/22 08:49:34;;;;;;;0.40;0.40;;;;;;;4.87;100.00;97468.94;5064482;28;20450;-66
2024/01/22 08:52:00;;;;;;;0.40;0.40;;;;;;;4.89;100.00;97460.28;5064678;28;20017;-67
2024/01/22 08:54:25;;;;;;;0.45;0.45;;;;;;;4.87;100.00;97504.94;5064680;28;20043;-66
2024/01/22 08:56:50;;;;;;;0.40;0.40;;;;;;;4.88;100.00;97497.19;5064346;28;20072;-67
2024/01/22 08:59:16;;;;;;;0.40;0.40;;;;;;;4.78;100.00;97490.63;5064588;28;20040;-66
2024/01/22 09:01:42;;;;;;;0.40;0.40;;;;;;;4.82;100.00;97497.38;5068012;28;20036;-67
2024/01/22 09:04:07;;;;;;;0.40;0.40;;;;;;;4.78;100.00;97482.91;5068424;28;20412;-67
2024/01/22 09:06:32;;;;;;;0.40;0.40;;;;;;;4.84;100.00;97505.84;5068214;28;20024;-66
2024/01/22 09:08:58;;;;;;;0.40;0.40;;;;;;;4.88;100.00;97498.91;5068156;28;20028;-67
2024/01/22 09:11:23;;;;;;;0.40;0.40;;;;;;;4.86;100.00;97498.94;5066668;28;20029;-67
2024/01/22 09:13:48;;;;;;;0.40;0.40;;;;;;;4.84;100.00;97509.28;5068126;28;20025;-67
2024/01/22 09:16:14;;;;;;;1.13;1.13;;;;;;;4.81;100.00;97505.97;5067900;28;20024;-67
2024/01/22 09:18:42;;;;;;;0.40;0.40;;;;;;;4.77;100.00;97494.09;5067976;28;20025;-67
2024/01/22 09:21:08;;;;;;;0.63;0.63;;;;;;;4.79;100.00;97485.44;5070409;23;20041;-70
2024/01/22 09:23:33;;;;;;;0.50;0.50;;;;;;;4.80;100.00;97489.72;5044770;28;20026;-70
2024/01/22 09:25:59;;;;;;;0.47;0.47;;;;;;;4.88;100.00;97506.59;5046096;28;20021;-70
2024/01/22 09:28:30;;;;;;;0.50;0.50;;;;;;;4.90;100.00;97504.84;5045069;28;20052;-69
2024/01/22 09:30:58;;;;;;;0.40;0.40;;;;;;;4.90;100.00;97494.56;5046118;28;20026;-70
2024/01/22 09:33:25;;;;;;;0.40;0.40;;;;;;;4.92;100.00;97518.50;5044801;28;20032;-70
2024/01/22 09:35:51;;;;;;;0.50;0.50;;;;;;;4.92;100.00;97516.75;5045937;28;20021;-70
2024/01/22 09:40:42;;;;;;;0.90;0.85;;;;;;;4.88;100.00;97512.59;5045675;22;20049;-62
2024/01/22 09:43:08;;;;;;;1.75;0.70;;;;;;;4.88;100.00;97511.75;5046041;28;20035;-61
2024/01/22 09:45:33;;;;;;;0.75;0.75;;;;;;;4.92;100.00;97524.44;5045612;28;20089;-62
2024/01/22 09:47:59;;;;;;;2.25;1.70;;;;;;;4.82;100.00;97503.34;5058632;23;20120;-63
2024/01/22 09:50:25;;;;;;;8.95;1.70;;;;;;;4.89;100.00;97529.69;5045606;28;20038;-62
2024/01/22 09:52:52;;;;;;;5.05;2.55;;;;;;;4.82;100.00;97539.31;5035377;23;20499;-70
2024/01/22 09:55:21;;;;;;;6.07;1.13;;;;;;;4.79;100.00;97526.56;5043554;28;20036;-70
2024/01/22 09:57:52;;;;;;;0.93;0.93;;;;;;;4.78;100.00;97526.63;5045597;28;20024;-69
2024/01/22 10:00:19;;;;;;;2.97;1.80;;;;;;;4.68;100.00;97526.91;5045588;28;20030;-70
2024/01/22 10:02:45;;;;;;;0.95;0.95;;;;;;;4.69;100.00;97526.03;5044213;28;20048;-69
2024/01/22 10:05:10;;;;;;;0.50;0.50;;;;;;;4.64;100.00;97519.34;5045117;28;20025;-70
2024/01/22 10:07:36;;;;;;;3.17;1.92;;;;;;;4.74;100.00;97555.88;5045315;28;20021;-70
2024/01/22 10:10:01;;;;;;;0.50;0.50;;;;;;;4.70;100.00;97548.28;5045024;28;20025;-69
2024/01/22 10:12:27;;;;;;;2.33;2.13;;;;;;;4.75;100.00;97550.69;5045021;28;20024;-70
2024/01/22 10:14:52;;;;;;;0.77;0.77;;;;;;;4.73;100.00;97546.50;5044096;28;20074;-69
2024/01/22 10:17:20;;;;;;;1.15;1.08;;;;;;;4.73;100.00;97554.22;5043898;28;20168;-70
2024/01/22 10:19:46;;;;;;;6.15;1.02;;;;;;;4.73;100.00;97559.34;5045297;28;20030;-70
2024/01/22 10:22:14;;;;;;;1.63;1.52;;;;;;;4.70;100.00;97561.13;5045193;28;20032;-70
2024/01/22 10:24:40;;;;;;;0.68;0.68;;;;;;;4.70;100.00;97555.97;5060518;28;20462;-71
2024/01/22 10:27:15;;;;;;;1.15;1.15;;;;;;;4.66;100.00;97554.41;5044969;28;20033;-71
2024/01/22 10:29:45;;;;;;;5.60;1.27;;;;;;;4.66;100.00;97550.97;5045106;28;20032;-69
2024/01/22 10:32:10;;;;;;;5.55;1.23;;;;;;;4.64;100.00;97558.75;5044728;28;20024;-70
2024/01/22 10:34:44;;;;;;;0.40;0.40;;;;;;;4.67;100.00;97570.66;5044813;28;20284;-71
2024/01/22 10:37:12;;;;;;;0.60;0.60;;;;;;;4.65;100.00;97565.56;5044660;28;20032;-70
2024/01/22 10:39:41;;;;;;;11.38;3.08;;;;;;;4.69;100.00;97580.00;5043316;28;20029;-71
2024/01/22 10:42:12;;;;;;;4.78;2.15;;;;;;;4.66;100.00;97580.09;5044492;28;20025;-71
2024/01/22 10:44:39;;;;;;;3.35;3.08;;;;;;;4.74;100.00;97569.59;5044744;28;20033;-71
2024/01/22 10:47:05;;;;;;;1.55;1.17;;;;;;;4.74;100.00;97576.44;5044636;28;20018;-71
2024/01/22 10:49:31;;;;;;;5.60;2.17;;;;;;;4.78;100.00;97583.16;5044724;28;20097;-71
2024/01/22 10:52:01;;;;;;;0.85;0.85;;;;;;;4.73;100.00;97578.16;5044657;28;20030;-71
2024/01/22 10:54:30;;;;;;;21.77;1.67;;;;;;;4.75;100.00;97578.13;5044484;28;20129;-70
2024/01/22 10:57:09;;;;;;;4.30;2.63;;;;;;;4.74;100.00;97586.72;5044330;28;20025;-71
2024/01/22 10:59:38;;;;;;;0.75;0.75;;;;;;;4.73;100.00;97580.72;5044730;28;20132;-71
2024/01/22 11:02:05;;;;;;;1.52;1.45;;;;;;;4.69;100.00;97592.84;5044415;28;20029;-70
2024/01/22 11:04:38;;;;;;;2.30;1.00;;;;;;;4.62;100.00;97599.06;5042964;28;20028;-70
2024/01/22 11:07:05;;;;;;;7.28;1.98;;;;;;;4.63;100.00;97587.06;5044349;28;20014;-71
2024/01/22 11:09:35;;;;;;;10.70;2.92;;;;;;;4.62;100.00;97593.91;5044060;28;20029;-70
2024/01/22 11:12:07;;;;;;;0.60;0.60;;;;;;;4.61;100.00;97596.53;5042758;28;20052;-71
2024/01/22 11:14:33;;;;;;;4.75;2.78;;;;;;;4.62;100.00;97606.75;5044318;28;20021;-72
2024/01/22 11:16:59;;;;;;;14.18;4.00;;;;;;;4.62;100.00;97588.78;5042657;28;20025;-71
2024/01/22 11:19:26;;;;;;;16.60;2.67;;;;;;;4.64;100.00;97604.16;5042736;28;20055;-71
2024/01/22 11:21:53;;;;;;;6.45;3.20;;;;;;;4.58;100.00;97600.84;5059466;28;20025;-71
2024/01/22 11:24:19;;;;;;;0.93;0.93;;;;;;;4.61;100.00;97602.50;5043444;28;20453;-71
2024/01/22 11:27:06;;;;;;;7.25;2.72;;;;;;;4.64;100.00;97609.28;5043848;28;20060;-71
2024/01/22 11:29:33;;;;;;;1.75;1.65;;;;;;;4.58;100.00;97595.72;5044034;28;20075;-71